Hagen — V2PB3 — position and weather

sailwx.info

Track history (hours):
 
Tides and Currents Weather Stations Pressure Air Temp Water Temp Dewpoint Dewpoint Depression Visibility Wind Speed Wind Dir Waves Ship Positions

Hagen

Last reported at 2014-Jul-28 17:11 UTC. Time now 2014-Jul-30 09:13 UTC.
Position N 41°06' E 001°16'.

Length 89 m; draft 5.9 m.

Type: Cargo ship. MMSI: 304010898.

Date/timePositionNaut miles runAvg speedWind from/ knotsBaromVisibWave heightAir tempDewpointWater temp
2014-Jul-28 17:11N 41°06' E 001°16'5 7.5
2014-Jul-28 16:33N 41°04' E 001°22'1210.0
2014-Jul-28 15:22N 40°58' E 001°36'1010.0
2014-Jul-28 14:24N 40°55' E 001°48'8 9.9
2014-Jul-28 13:33N 40°52' E 001°58'10 9.8
2014-Jul-28 12:33N 40°48' E 002°10'10 9.6
2014-Jul-28 11:33N 40°44' E 002°22'10 9.8
2014-Jul-28 10:33N 40°40' E 002°33'1010.0
2014-Jul-28 09:33N 40°36' E 002°45'1010.1
2014-Jul-28 08:34N 40°33' E 002°58'10 9.8
2014-Jul-28 07:33N 40°30' E 003°10'1110.5
2014-Jul-28 06:33N 40°26' E 003°23'8 8.5
2014-Jul-28 05:33N 40°23' E 003°34'22 9.5
2014-Jul-28 03:18N 40°16' E 004°00'7 9.8
2014-Jul-28 02:32N 40°13' E 004°09'10 9.9
2014-Jul-28 01:34N 40°10' E 004°21'12 9.8
2014-Jul-28 00:23N 40°05' E 004°35'10 9.7
2014-Jul-27 23:21N 40°01' E 004°47'190 9.6
2014-Jul-27 03:30N 38°47' E 008°33'9 9.8
2014-Jul-27 02:33N 38°43' E 008°44'10 9.9
2014-Jul-27 01:33N 38°39' E 008°55'10 9.7
2014-Jul-27 00:33N 38°35' E 009°07'1010.0
2014-Jul-26 23:34N 38°32' E 009°19'10 9.6
2014-Jul-26 22:33N 38°28' E 009°31'9 9.4
2014-Jul-26 21:32N 38°25' E 009°42'9 9.2
2014-Jul-26 20:33N 38°21' E 009°53'10 9.4
2014-Jul-26 19:32N 38°18' E 010°04'10 9.3
2014-Jul-26 18:31N 38°14' E 010°15'179 9.3
2014-Jul-25 23:14N 37°02' E 013°42'710.2
2014-Jul-25 22:34N 36°59' E 013°49'1010.0
2014-Jul-25 21:34N 36°54' E 014°01'1010.0
2014-Jul-25 20:34N 36°50' E 014°12'10 9.8
2014-Jul-25 19:34N 36°46' E 014°23'10 9.6
2014-Jul-25 18:34N 36°43' E 014°34'1010.0
2014-Jul-25 17:34N 36°38' E 014°45'10 9.8
2014-Jul-25 16:34N 36°34' E 014°57'10 9.7
2014-Jul-25 15:34N 36°31' E 015°08'397 9.4
2014-Jul-23 21:09N 36°33' E 023°21'16 9.7
2014-Jul-23 19:28N 36°47' E 023°32'52 8.8
2014-Jul-23 13:33N 37°31' E 024°07'19 8.9
2014-Jul-23 11:28N 37°46' E 024°21'  
Track history (hours):
 
Tides and Currents Weather Stations Pressure Air Temp Water Temp Dewpoint Dewpoint Depression Visibility Wind Speed Wind Dir Waves Ship Positions

Hagen

Last reported at 2014-Jul-28 17:11 UTC. Time now 2014-Jul-30 09:13 UTC.
Position N 41°06' E 001°16'.

Length 89 m; draft 5.9 m.

Type: Cargo ship. MMSI: 304010898.

Date/timePositionNaut miles runAvg speedWind from/ knotsBaromVisibWave heightAir tempDewpointWater temp
2014-Jul-28 17:11N 41°06' E 001°16'5 7.5
2014-Jul-28 16:33N 41°04' E 001°22'1210.0
2014-Jul-28 15:22N 40°58' E 001°36'1010.0
2014-Jul-28 14:24N 40°55' E 001°48'8 9.9
2014-Jul-28 13:33N 40°52' E 001°58'10 9.8
2014-Jul-28 12:33N 40°48' E 002°10'10 9.6
2014-Jul-28 11:33N 40°44' E 002°22'10 9.8
2014-Jul-28 10:33N 40°40' E 002°33'1010.0
2014-Jul-28 09:33N 40°36' E 002°45'1010.1
2014-Jul-28 08:34N 40°33' E 002°58'10 9.8
2014-Jul-28 07:33N 40°30' E 003°10'1110.5
2014-Jul-28 06:33N 40°26' E 003°23'8 8.5
2014-Jul-28 05:33N 40°23' E 003°34'22 9.5
2014-Jul-28 03:18N 40°16' E 004°00'7 9.8
2014-Jul-28 02:32N 40°13' E 004°09'10 9.9
2014-Jul-28 01:34N 40°10' E 004°21'12 9.8
2014-Jul-28 00:23N 40°05' E 004°35'10 9.7
2014-Jul-27 23:21N 40°01' E 004°47'190 9.6
2014-Jul-27 03:30N 38°47' E 008°33'9 9.8
2014-Jul-27 02:33N 38°43' E 008°44'10 9.9
2014-Jul-27 01:33N 38°39' E 008°55'10 9.7
2014-Jul-27 00:33N 38°35' E 009°07'1010.0
2014-Jul-26 23:34N 38°32' E 009°19'10 9.6
2014-Jul-26 22:33N 38°28' E 009°31'9 9.4
2014-Jul-26 21:32N 38°25' E 009°42'9 9.2
2014-Jul-26 20:33N 38°21' E 009°53'10 9.4
2014-Jul-26 19:32N 38°18' E 010°04'10 9.3
2014-Jul-26 18:31N 38°14' E 010°15'179 9.3
2014-Jul-25 23:14N 37°02' E 013°42'710.2
2014-Jul-25 22:34N 36°59' E 013°49'1010.0
2014-Jul-25 21:34N 36°54' E 014°01'1010.0
2014-Jul-25 20:34N 36°50' E 014°12'10 9.8
2014-Jul-25 19:34N 36°46' E 014°23'10 9.6
2014-Jul-25 18:34N 36°43' E 014°34'1010.0
2014-Jul-25 17:34N 36°38' E 014°45'10 9.8
2014-Jul-25 16:34N 36°34' E 014°57'10 9.7
2014-Jul-25 15:34N 36°31' E 015°08'397 9.4
2014-Jul-23 21:09N 36°33' E 023°21'16 9.7
2014-Jul-23 19:28N 36°47' E 023°32'52 8.8
2014-Jul-23 13:33N 37°31' E 024°07'19 8.9
2014-Jul-23 11:28N 37°46' E 024°21'  

Dump ship's entire track history